sensor_id;sensor_type;location;lat;lon;timestamp;P1;durP1;ratioP1;P2;durP2;ratioP2
26864;SDS011;40618;51.166;10.322;2023-03-17T00:01:33;3.42;;;2.45;;
26864;SDS011;40618;51.166;10.322;2023-03-17T00:03:59;3.60;;;2.38;;
26864;SDS011;40618;51.166;10.322;2023-03-17T00:06:28;4.80;;;2.63;;
26864;SDS011;40618;51.166;10.322;2023-03-17T00:08:56;3.38;;;2.10;;
26864;SDS011;40618;51.166;10.322;2023-03-17T00:11:22;4.60;;;2.45;;
26864;SDS011;40618;51.166;10.322;2023-03-17T00:13:49;3.13;;;2.47;;
26864;SDS011;40618;51.166;10.322;2023-03-17T00:18:46;3.65;;;2.60;;
26864;SDS011;40618;51.166;10.322;2023-03-17T00:21:20;4.05;;;2.30;;
26864;SDS011;40618;51.166;10.322;2023-03-17T00:23:52;3.55;;;2.42;;
26864;SDS011;40618;51.166;10.322;2023-03-17T00:26:19;4.78;;;2.40;;
26864;SDS011;40618;51.166;10.322;2023-03-17T00:28:45;3.33;;;2.47;;
26864;SDS011;40618;51.166;10.322;2023-03-17T00:31:23;3.75;;;2.47;;
26864;SDS011;40618;51.166;10.322;2023-03-17T00:33:51;4.28;;;3.05;;
26864;SDS011;40618;51.166;10.322;2023-03-17T00:36:19;4.97;;;3.10;;
26864;SDS011;40618;51.166;10.322;2023-03-17T00:38:48;4.97;;;2.50;;
26864;SDS011;40618;51.166;10.322;2023-03-17T00:41:16;4.70;;;2.80;;
26864;SDS011;40618;51.166;10.322;2023-03-17T00:43:42;5.68;;;2.92;;
26864;SDS011;40618;51.166;10.322;2023-03-17T00:46:12;5.82;;;2.83;;
26864;SDS011;40618;51.166;10.322;2023-03-17T00:48:50;4.50;;;2.88;;
26864;SDS011;40618;51.166;10.322;2023-03-17T00:51:16;5.40;;;3.25;;
26864;SDS011;40618;51.166;10.322;2023-03-17T00:53:42;4.93;;;2.97;;
26864;SDS011;40618;51.166;10.322;2023-03-17T00:56:12;8.00;;;4.65;;
26864;SDS011;40618;51.166;10.322;2023-03-17T00:58:41;7.57;;;4.07;;
26864;SDS011;40618;51.166;10.322;2023-03-17T01:01:07;11.65;;;6.22;;
26864;SDS011;40618;51.166;10.322;2023-03-17T01:03:34;27.00;;;12.13;;
26864;SDS011;40618;51.166;10.322;2023-03-17T01:06:01;14.38;;;7.45;;
26864;SDS011;40618;51.166;10.322;2023-03-17T01:08:30;21.25;;;9.82;;
26864;SDS011;40618;51.166;10.322;2023-03-17T01:10:55;20.90;;;10.63;;
26864;SDS011;40618;51.166;10.322;2023-03-17T01:13:22;21.20;;;8.95;;
26864;SDS011;40618;51.166;10.322;2023-03-17T01:15:48;19.42;;;8.85;;
26864;SDS011;40618;51.166;10.322;2023-03-17T01:18:17;25.65;;;10.77;;
26864;SDS011;40618;51.166;10.322;2023-03-17T01:20:46;12.93;;;6.13;;
26864;SDS011;40618;51.166;10.322;2023-03-17T01:23:13;11.43;;;5.90;;
26864;SDS011;40618;51.166;10.322;2023-03-17T01:25:40;21.42;;;10.82;;
26864;SDS011;40618;51.166;10.322;2023-03-17T01:28:09;16.75;;;6.85;;
26864;SDS011;40618;51.166;10.322;2023-03-17T01:30:39;19.27;;;9.00;;
26864;SDS011;40618;51.166;10.322;2023-03-17T01:33:06;13.77;;;6.40;;
26864;SDS011;40618;51.166;10.322;2023-03-17T01:35:34;13.68;;;6.78;;
26864;SDS011;40618;51.166;10.322;2023-03-17T01:38:02;15.30;;;6.97;;
26864;SDS011;40618;51.166;10.322;2023-03-17T01:40:30;11.95;;;5.53;;
26864;SDS011;40618;51.166;10.322;2023-03-17T01:43:14;22.55;;;9.63;;
26864;SDS011;40618;51.166;10.322;2023-03-17T01:54:49;23.80;;;10.25;;
26864;SDS011;40618;51.166;10.322;2023-03-17T01:59:50;11.90;;;6.22;;
26864;SDS011;40618;51.166;10.322;2023-03-17T02:02:25;6.90;;;3.45;;
26864;SDS011;40618;51.166;10.322;2023-03-17T02:05:05;14.00;;;6.10;;
26864;SDS011;40618;51.166;10.322;2023-03-17T02:07:35;7.57;;;4.20;;
26864;SDS011;40618;51.166;10.322;2023-03-17T02:10:02;8.02;;;4.03;;
26864;SDS011;40618;51.166;10.322;2023-03-17T02:12:30;7.78;;;3.95;;
26864;SDS011;40618;51.166;10.322;2023-03-17T02:14:58;13.63;;;5.50;;
26864;SDS011;40618;51.166;10.322;2023-03-17T02:17:24;9.85;;;4.90;;
26864;SDS011;40618;51.166;10.322;2023-03-17T02:19:52;12.45;;;5.75;;
26864;SDS011;40618;51.166;10.322;2023-03-17T02:22:19;4.43;;;2.97;;
26864;SDS011;40618;51.166;10.322;2023-03-17T02:24:47;9.32;;;4.53;;
26864;SDS011;40618;51.166;10.322;2023-03-17T02:27:26;8.23;;;3.90;;
26864;SDS011;40618;51.166;10.322;2023-03-17T02:29:59;7.05;;;4.03;;
26864;SDS011;40618;51.166;10.322;2023-03-17T02:32:25;6.75;;;2.90;;
26864;SDS011;40618;51.166;10.322;2023-03-17T02:34:51;3.90;;;2.30;;
26864;SDS011;40618;51.166;10.322;2023-03-17T02:37:17;5.05;;;2.78;;
26864;SDS011;40618;51.166;10.322;2023-03-17T02:39:44;10.45;;;5.22;;
26864;SDS011;40618;51.166;10.322;2023-03-17T02:42:11;7.18;;;3.88;;
26864;SDS011;40618;51.166;10.322;2023-03-17T02:44:38;11.52;;;4.78;;
26864;SDS011;40618;51.166;10.322;2023-03-17T02:47:04;9.98;;;5.18;;
26864;SDS011;40618;51.166;10.322;2023-03-17T02:49:31;11.25;;;5.38;;
26864;SDS011;40618;51.166;10.322;2023-03-17T02:51:59;5.45;;;3.05;;
26864;SDS011;40618;51.166;10.322;2023-03-17T02:54:25;6.22;;;2.05;;
26864;SDS011;40618;51.166;10.322;2023-03-17T02:56:51;10.23;;;5.10;;
26864;SDS011;40618;51.166;10.322;2023-03-17T02:59:16;11.40;;;6.22;;
26864;SDS011;40618;51.166;10.322;2023-03-17T03:01:42;10.90;;;5.40;;
26864;SDS011;40618;51.166;10.322;2023-03-17T03:04:08;8.75;;;4.80;;
26864;SDS011;40618;51.166;10.322;2023-03-17T03:06:34;9.82;;;5.35;;
26864;SDS011;40618;51.166;10.322;2023-03-17T03:09:00;11.35;;;5.60;;
26864;SDS011;40618;51.166;10.322;2023-03-17T03:11:27;5.60;;;3.22;;
26864;SDS011;40618;51.166;10.322;2023-03-17T03:13:53;5.82;;;3.17;;
26864;SDS011;40618;51.166;10.322;2023-03-17T03:16:19;5.22;;;3.15;;
26864;SDS011;40618;51.166;10.322;2023-03-17T03:18:44;6.13;;;2.90;;
26864;SDS011;40618;51.166;10.322;2023-03-17T03:21:10;10.90;;;4.53;;
26864;SDS011;40618;51.166;10.322;2023-03-17T03:23:36;3.05;;;2.10;;
26864;SDS011;40618;51.166;10.322;2023-03-17T03:26:01;4.70;;;3.08;;
26864;SDS011;40618;51.166;10.322;2023-03-17T03:28:27;5.28;;;2.40;;
26864;SDS011;40618;51.166;10.322;2023-03-17T03:30:53;5.72;;;2.85;;
26864;SDS011;40618;51.166;10.322;2023-03-17T03:33:19;7.97;;;4.45;;
26864;SDS011;40618;51.166;10.322;2023-03-17T03:35:44;5.90;;;3.22;;
26864;SDS011;40618;51.166;10.322;2023-03-17T03:38:10;5.70;;;2.63;;
26864;SDS011;40618;51.166;10.322;2023-03-17T03:40:37;8.38;;;3.50;;
26864;SDS011;40618;51.166;10.322;2023-03-17T03:43:03;5.25;;;2.85;;
26864;SDS011;40618;51.166;10.322;2023-03-17T03:45:30;7.35;;;3.38;;
26864;SDS011;40618;51.166;10.322;2023-03-17T03:47:57;6.68;;;3.67;;
26864;SDS011;40618;51.166;10.322;2023-03-17T03:50:22;5.05;;;2.47;;
26864;SDS011;40618;51.166;10.322;2023-03-17T03:52:49;8.95;;;2.20;;
26864;SDS011;40618;51.166;10.322;2023-03-17T03:55:14;8.23;;;4.20;;
26864;SDS011;40618;51.166;10.322;2023-03-17T03:57:40;5.32;;;2.83;;
26864;SDS011;40618;51.166;10.322;2023-03-17T04:00:07;6.00;;;2.83;;
26864;SDS011;40618;51.166;10.322;2023-03-17T04:02:34;4.47;;;2.53;;
26864;SDS011;40618;51.166;10.322;2023-03-17T04:05:00;3.58;;;2.20;;
26864;SDS011;40618;51.166;10.322;2023-03-17T04:07:27;4.50;;;3.13;;
26864;SDS011;40618;51.166;10.322;2023-03-17T04:09:53;3.17;;;2.22;;
26864;SDS011;40618;51.166;10.322;2023-03-17T04:12:18;3.65;;;1.50;;
26864;SDS011;40618;51.166;10.322;2023-03-17T04:14:44;2.50;;;1.70;;
26864;SDS011;40618;51.166;10.322;2023-03-17T04:17:10;2.03;;;1.60;;
26864;SDS011;40618;51.166;10.322;2023-03-17T04:19:37;6.30;;;2.80;;
26864;SDS011;40618;51.166;10.322;2023-03-17T04:22:04;2.30;;;1.80;;
26864;SDS011;40618;51.166;10.322;2023-03-17T04:24:31;2.47;;;1.50;;
26864;SDS011;40618;51.166;10.322;2023-03-17T04:26:58;3.78;;;1.75;;
26864;SDS011;40618;51.166;10.322;2023-03-17T04:29:25;2.45;;;1.60;;
26864;SDS011;40618;51.166;10.322;2023-03-17T04:31:51;2.25;;;1.17;;
26864;SDS011;40618;51.166;10.322;2023-03-17T04:34:17;1.33;;;1.17;;
26864;SDS011;40618;51.166;10.322;2023-03-17T04:36:43;2.28;;;1.30;;
26864;SDS011;40618;51.166;10.322;2023-03-17T04:39:11;2.83;;;1.25;;
26864;SDS011;40618;51.166;10.322;2023-03-17T04:41:37;2.20;;;1.50;;
26864;SDS011;40618;51.166;10.322;2023-03-17T04:44:04;2.03;;;1.10;;
26864;SDS011;40618;51.166;10.322;2023-03-17T04:46:31;1.98;;;1.23;;
26864;SDS011;40618;51.166;10.322;2023-03-17T04:48:57;10.93;;;1.23;;
26864;SDS011;40618;51.166;10.322;2023-03-17T04:51:23;1.48;;;1.10;;
26864;SDS011;40618;51.166;10.322;2023-03-17T04:53:48;3.00;;;1.15;;
26864;SDS011;40618;51.166;10.322;2023-03-17T04:56:14;3.15;;;1.13;;
26864;SDS011;40618;51.166;10.322;2023-03-17T04:58:40;3.22;;;1.17;;
26864;SDS011;40618;51.166;10.322;2023-03-17T05:01:06;2.33;;;1.20;;
26864;SDS011;40618;51.166;10.322;2023-03-17T05:03:32;5.97;;;1.40;;
26864;SDS011;40618;51.166;10.322;2023-03-17T05:05:58;2.92;;;1.10;;
26864;SDS011;40618;51.166;10.322;2023-03-17T05:08:25;1.85;;;1.20;;
26864;SDS011;40618;51.166;10.322;2023-03-17T05:10:52;1.00;;;0.90;;
26864;SDS011;40618;51.166;10.322;2023-03-17T05:13:20;1.48;;;1.05;;
26864;SDS011;40618;51.166;10.322;2023-03-17T05:15:50;3.58;;;1.23;;
26864;SDS011;40618;51.166;10.322;2023-03-17T05:18:18;1.55;;;1.00;;
26864;SDS011;40618;51.166;10.322;2023-03-17T05:20:46;1.10;;;0.80;;
26864;SDS011;40618;51.166;10.322;2023-03-17T05:23:11;1.98;;;1.13;;
26864;SDS011;40618;51.166;10.322;2023-03-17T05:25:37;2.10;;;1.20;;
26864;SDS011;40618;51.166;10.322;2023-03-17T05:28:04;2.17;;;1.48;;
26864;SDS011;40618;51.166;10.322;2023-03-17T05:30:31;1.58;;;1.02;;
26864;SDS011;40618;51.166;10.322;2023-03-17T05:32:57;1.85;;;1.23;;
26864;SDS011;40618;51.166;10.322;2023-03-17T05:35:24;3.72;;;1.25;;
26864;SDS011;40618;51.166;10.322;2023-03-17T05:37:51;2.22;;;1.05;;
26864;SDS011;40618;51.166;10.322;2023-03-17T05:40:17;2.17;;;1.10;;
26864;SDS011;40618;51.166;10.322;2023-03-17T05:42:42;1.83;;;0.95;;
26864;SDS011;40618;51.166;10.322;2023-03-17T05:45:08;2.45;;;1.23;;
26864;SDS011;40618;51.166;10.322;2023-03-17T05:47:34;1.85;;;1.00;;
26864;SDS011;40618;51.166;10.322;2023-03-17T05:50:00;3.88;;;1.50;;
26864;SDS011;40618;51.166;10.322;2023-03-17T05:52:28;1.00;;;0.85;;
26864;SDS011;40618;51.166;10.322;2023-03-17T05:54:55;2.38;;;0.90;;
26864;SDS011;40618;51.166;10.322;2023-03-17T05:57:21;1.83;;;1.25;;
26864;SDS011;40618;51.166;10.322;2023-03-17T05:59:48;4.85;;;1.40;;
26864;SDS011;40618;51.166;10.322;2023-03-17T06:02:14;1.45;;;1.10;;
26864;SDS011;40618;51.166;10.322;2023-03-17T06:04:41;2.47;;;0.98;;
26864;SDS011;40618;51.166;10.322;2023-03-17T06:07:07;3.03;;;1.38;;
26864;SDS011;40618;51.166;10.322;2023-03-17T06:09:34;1.45;;;1.05;;
26864;SDS011;40618;51.166;10.322;2023-03-17T06:12:00;2.50;;;1.70;;
26864;SDS011;40618;51.166;10.322;2023-03-17T06:14:26;2.88;;;1.95;;
26864;SDS011;40618;51.166;10.322;2023-03-17T06:16:52;4.18;;;2.30;;
26864;SDS011;40618;51.166;10.322;2023-03-17T06:19:18;8.90;;;4.05;;
26864;SDS011;40618;51.166;10.322;2023-03-17T06:21:43;15.02;;;5.90;;
26864;SDS011;40618;51.166;10.322;2023-03-17T06:24:09;16.25;;;7.00;;
26864;SDS011;40618;51.166;10.322;2023-03-17T06:26:35;15.52;;;6.22;;
26864;SDS011;40618;51.166;10.322;2023-03-17T06:29:02;12.40;;;5.20;;
26864;SDS011;40618;51.166;10.322;2023-03-17T06:31:34;10.68;;;5.22;;
26864;SDS011;40618;51.166;10.322;2023-03-17T06:34:03;16.97;;;6.57;;
26864;SDS011;40618;51.166;10.322;2023-03-17T06:36:30;14.48;;;4.72;;
26864;SDS011;40618;51.166;10.322;2023-03-17T06:38:57;8.77;;;4.25;;
26864;SDS011;40618;51.166;10.322;2023-03-17T06:41:24;12.25;;;4.80;;
26864;SDS011;40618;51.166;10.322;2023-03-17T06:43:50;11.00;;;5.35;;
26864;SDS011;40618;51.166;10.322;2023-03-17T06:46:16;16.90;;;6.68;;
26864;SDS011;40618;51.166;10.322;2023-03-17T06:48:42;23.30;;;11.70;;
26864;SDS011;40618;51.166;10.322;2023-03-17T06:51:08;16.52;;;7.75;;
26864;SDS011;40618;51.166;10.322;2023-03-17T06:53:34;17.92;;;8.65;;
26864;SDS011;40618;51.166;10.322;2023-03-17T06:56:01;15.07;;;6.57;;
26864;SDS011;40618;51.166;10.322;2023-03-17T06:58:29;5.43;;;2.85;;
26864;SDS011;40618;51.166;10.322;2023-03-17T07:00:55;10.00;;;3.88;;
26864;SDS011;40618;51.166;10.322;2023-03-17T07:03:23;28.10;;;12.35;;
26864;SDS011;40618;51.166;10.322;2023-03-17T07:05:49;14.20;;;6.28;;
26864;SDS011;40618;51.166;10.322;2023-03-17T07:08:16;7.55;;;3.22;;
26864;SDS011;40618;51.166;10.322;2023-03-17T07:10:42;4.75;;;1.95;;
26864;SDS011;40618;51.166;10.322;2023-03-17T07:13:08;4.53;;;2.10;;
26864;SDS011;40618;51.166;10.322;2023-03-17T07:15:34;2.83;;;1.48;;
26864;SDS011;40618;51.166;10.322;2023-03-17T07:18:01;3.38;;;1.70;;
26864;SDS011;40618;51.166;10.322;2023-03-17T07:20:28;2.83;;;1.40;;
26864;SDS011;40618;51.166;10.322;2023-03-17T07:22:54;6.95;;;3.08;;
26864;SDS011;40618;51.166;10.322;2023-03-17T07:25:20;9.00;;;4.13;;
26864;SDS011;40618;51.166;10.322;2023-03-17T07:27:46;8.25;;;3.10;;
26864;SDS011;40618;51.166;10.322;2023-03-17T07:30:12;6.72;;;3.03;;
26864;SDS011;40618;51.166;10.322;2023-03-17T07:32:43;4.65;;;2.22;;
26864;SDS011;40618;51.166;10.322;2023-03-17T07:35:10;9.88;;;3.30;;
26864;SDS011;40618;51.166;10.322;2023-03-17T07:37:39;7.22;;;2.20;;
26864;SDS011;40618;51.166;10.322;2023-03-17T07:40:06;4.53;;;1.92;;
26864;SDS011;40618;51.166;10.322;2023-03-17T07:42:34;4.47;;;2.20;;
26864;SDS011;40618;51.166;10.322;2023-03-17T07:45:01;2.83;;;1.55;;
26864;SDS011;40618;51.166;10.322;2023-03-17T07:47:29;4.03;;;1.90;;
26864;SDS011;40618;51.166;10.322;2023-03-17T07:49:54;4.05;;;1.52;;
26864;SDS011;40618;51.166;10.322;2023-03-17T07:52:20;4.68;;;2.10;;
26864;SDS011;40618;51.166;10.322;2023-03-17T07:54:46;4.32;;;1.90;;
26864;SDS011;40618;51.166;10.322;2023-03-17T07:57:11;2.03;;;1.25;;
26864;SDS011;40618;51.166;10.322;2023-03-17T07:59:37;2.95;;;1.50;;
26864;SDS011;40618;51.166;10.322;2023-03-17T08:02:04;4.10;;;1.77;;
26864;SDS011;40618;51.166;10.322;2023-03-17T08:04:30;2.40;;;1.30;;
26864;SDS011;40618;51.166;10.322;2023-03-17T08:06:56;5.38;;;2.08;;
26864;SDS011;40618;51.166;10.322;2023-03-17T08:09:22;4.20;;;2.03;;
26864;SDS011;40618;51.166;10.322;2023-03-17T08:11:48;7.22;;;2.40;;
26864;SDS011;40618;51.166;10.322;2023-03-17T08:14:13;5.88;;;2.47;;
26864;SDS011;40618;51.166;10.322;2023-03-17T08:16:39;3.70;;;1.90;;
26864;SDS011;40618;51.166;10.322;2023-03-17T08:19:05;4.03;;;2.38;;
26864;SDS011;40618;51.166;10.322;2023-03-17T08:21:31;2.30;;;1.83;;
26864;SDS011;40618;51.166;10.322;2023-03-17T08:23:57;4.60;;;2.22;;
26864;SDS011;40618;51.166;10.322;2023-03-17T08:26:23;4.40;;;1.88;;
26864;SDS011;40618;51.166;10.322;2023-03-17T08:28:49;6.63;;;2.00;;
26864;SDS011;40618;51.166;10.322;2023-03-17T08:31:16;7.25;;;2.03;;
26864;SDS011;40618;51.166;10.322;2023-03-17T08:33:45;2.75;;;1.77;;
26864;SDS011;40618;51.166;10.322;2023-03-17T08:38:42;1.77;;;1.25;;
26864;SDS011;40618;51.166;10.322;2023-03-17T08:41:11;2.50;;;1.58;;
26864;SDS011;40618;51.166;10.322;2023-03-17T08:43:41;4.63;;;2.00;;
26864;SDS011;40618;51.166;10.322;2023-03-17T08:46:18;3.47;;;1.73;;
26864;SDS011;40618;51.166;10.322;2023-03-17T08:48:50;2.63;;;1.42;;
26864;SDS011;40618;51.166;10.322;2023-03-17T08:51:18;3.28;;;1.60;;
26864;SDS011;40618;51.166;10.322;2023-03-17T08:53:44;9.27;;;1.58;;
26864;SDS011;40618;51.166;10.322;2023-03-17T08:56:10;3.40;;;1.80;;
26864;SDS011;40618;51.166;10.322;2023-03-17T08:58:38;3.90;;;1.42;;
26864;SDS011;40618;51.166;10.322;2023-03-17T09:01:04;3.42;;;1.70;;
26864;SDS011;40618;51.166;10.322;2023-03-17T09:03:31;3.55;;;1.98;;
26864;SDS011;40618;51.166;10.322;2023-03-17T09:05:58;3.90;;;1.77;;
26864;SDS011;40618;51.166;10.322;2023-03-17T09:08:25;2.58;;;1.30;;
26864;SDS011;40618;51.166;10.322;2023-03-17T09:10:52;3.15;;;1.65;;
26864;SDS011;40618;51.166;10.322;2023-03-17T09:13:18;5.50;;;1.95;;
26864;SDS011;40618;51.166;10.322;2023-03-17T09:15:46;2.75;;;1.77;;
26864;SDS011;40618;51.166;10.322;2023-03-17T09:18:12;5.00;;;1.33;;
26864;SDS011;40618;51.166;10.322;2023-03-17T09:20:38;3.80;;;1.20;;
26864;SDS011;40618;51.166;10.322;2023-03-17T09:23:06;2.85;;;1.70;;
26864;SDS011;40618;51.166;10.322;2023-03-17T09:25:34;3.28;;;1.40;;
26864;SDS011;40618;51.166;10.322;2023-03-17T09:28:02;2.88;;;1.30;;
26864;SDS011;40618;51.166;10.322;2023-03-17T09:30:28;2.17;;;1.27;;
26864;SDS011;40618;51.166;10.322;2023-03-17T09:32:54;2.80;;;1.38;;
26864;SDS011;40618;51.166;10.322;2023-03-17T09:35:20;3.63;;;1.30;;
26864;SDS011;40618;51.166;10.322;2023-03-17T09:37:46;3.28;;;1.23;;
26864;SDS011;40618;51.166;10.322;2023-03-17T09:40:14;3.92;;;1.75;;
26864;SDS011;40618;51.166;10.322;2023-03-17T09:45:29;2.42;;;1.33;;
26864;SDS011;40618;51.166;10.322;2023-03-17T09:51:09;3.55;;;1.05;;
26864;SDS011;40618;51.166;10.322;2023-03-17T09:53:47;1.63;;;1.00;;
26864;SDS011;40618;51.166;10.322;2023-03-17T09:56:24;2.92;;;1.33;;
26864;SDS011;40618;51.166;10.322;2023-03-17T09:58:56;1.52;;;1.00;;
26864;SDS011;40618;51.166;10.322;2023-03-17T10:01:35;3.65;;;2.00;;
26864;SDS011;40618;51.166;10.322;2023-03-17T10:04:07;4.40;;;2.22;;
26864;SDS011;40618;51.166;10.322;2023-03-17T10:06:38;5.68;;;2.70;;
26864;SDS011;40618;51.166;10.322;2023-03-17T10:09:15;7.22;;;3.25;;
26864;SDS011;40618;51.166;10.322;2023-03-17T10:12:07;4.32;;;2.60;;
26864;SDS011;40618;51.166;10.322;2023-03-17T10:15:11;7.30;;;4.00;;
26864;SDS011;40618;51.166;10.322;2023-03-17T10:18:25;8.15;;;4.45;;
26864;SDS011;40618;51.166;10.322;2023-03-17T10:20:58;5.68;;;2.97;;
26864;SDS011;40618;51.166;10.322;2023-03-17T10:23:31;8.25;;;3.30;;
26864;SDS011;40618;51.166;10.322;2023-03-17T10:26:46;5.53;;;2.65;;
26864;SDS011;40618;51.166;10.322;2023-03-17T10:29:16;6.53;;;3.35;;
26864;SDS011;40618;51.166;10.322;2023-03-17T10:31:48;9.40;;;2.20;;
26864;SDS011;40618;51.166;10.322;2023-03-17T10:34:37;5.05;;;2.35;;
26864;SDS011;40618;51.166;10.322;2023-03-17T10:39:43;5.97;;;3.13;;
26864;SDS011;40618;51.166;10.322;2023-03-17T10:42:20;9.90;;;5.15;;
26864;SDS011;40618;51.166;10.322;2023-03-17T10:44:55;5.90;;;2.70;;
26864;SDS011;40618;51.166;10.322;2023-03-17T10:47:38;3.08;;;2.35;;
26864;SDS011;40618;51.166;10.322;2023-03-17T10:53:13;6.90;;;3.65;;
26864;SDS011;40618;51.166;10.322;2023-03-17T10:55:55;9.25;;;4.45;;
26864;SDS011;40618;51.166;10.322;2023-03-17T10:58:44;9.30;;;4.55;;
26864;SDS011;40618;51.166;10.322;2023-03-17T11:03:45;9.68;;;5.63;;
26864;SDS011;40618;51.166;10.322;2023-03-17T11:06:13;11.38;;;5.95;;
26864;SDS011;40618;51.166;10.322;2023-03-17T11:08:45;9.65;;;5.22;;
26864;SDS011;40618;51.166;10.322;2023-03-17T11:11:25;5.85;;;2.80;;
26864;SDS011;40618;51.166;10.322;2023-03-17T11:22:36;6.18;;;3.50;;
26864;SDS011;40618;51.166;10.322;2023-03-17T11:25:10;7.68;;;4.15;;
26864;SDS011;40618;51.166;10.322;2023-03-17T11:27:43;3.88;;;2.33;;
26864;SDS011;40618;51.166;10.322;2023-03-17T11:30:24;7.72;;;3.78;;
26864;SDS011;40618;51.166;10.322;2023-03-17T11:35:40;7.13;;;4.75;;
26864;SDS011;40618;51.166;10.322;2023-03-17T11:46:46;2.33;;;1.30;;
26864;SDS011;40618;51.166;10.322;2023-03-17T11:49:49;1.95;;;1.20;;
26864;SDS011;40618;51.166;10.322;2023-03-17T12:00:59;3.35;;;1.75;;
26864;SDS011;40618;51.166;10.322;2023-03-17T12:04:34;2.20;;;1.70;;
26864;SDS011;40618;51.166;10.322;2023-03-17T12:06:44;2.13;;;1.47;;
26864;SDS011;40618;51.166;10.322;2023-03-17T12:12:00;2.88;;;1.58;;
26864;SDS011;40618;51.166;10.322;2023-03-17T12:14:35;16.08;;;9.13;;
26864;SDS011;40618;51.166;10.322;2023-03-17T12:20:20;2.42;;;1.77;;
26864;SDS011;40618;51.166;10.322;2023-03-17T12:23:10;2.03;;;1.60;;
26864;SDS011;40618;51.166;10.322;2023-03-17T12:26:04;1.65;;;1.10;;
26864;SDS011;40618;51.166;10.322;2023-03-17T12:28:53;3.45;;;1.02;;
26864;SDS011;40618;51.166;10.322;2023-03-17T12:31:30;1.00;;;0.80;;
26864;SDS011;40618;51.166;10.322;2023-03-17T12:34:12;2.72;;;1.10;;
26864;SDS011;40618;51.166;10.322;2023-03-17T12:36:57;1.15;;;0.88;;
26864;SDS011;40618;51.166;10.322;2023-03-17T12:39:24;1.95;;;1.23;;
26864;SDS011;40618;51.166;10.322;2023-03-17T12:42:01;1.42;;;1.27;;
26864;SDS011;40618;51.166;10.322;2023-03-17T12:47:54;1.85;;;1.05;;
26864;SDS011;40618;51.166;10.322;2023-03-17T12:53:54;2.47;;;0.90;;
26864;SDS011;40618;51.166;10.322;2023-03-17T12:56:24;1.60;;;1.20;;
26864;SDS011;40618;51.166;10.322;2023-03-17T12:59:15;1.70;;;1.15;;
26864;SDS011;40618;51.166;10.322;2023-03-17T13:01:55;2.90;;;0.95;;
26864;SDS011;40618;51.166;10.322;2023-03-17T13:04:48;0.90;;;0.77;;
26864;SDS011;40618;51.166;10.322;2023-03-17T13:07:22;2.05;;;0.98;;
26864;SDS011;40618;51.166;10.322;2023-03-17T13:10:39;7.18;;;1.80;;
26864;SDS011;40618;51.166;10.322;2023-03-17T13:16:04;2.55;;;1.40;;
26864;SDS011;40618;51.166;10.322;2023-03-17T13:18:51;1.63;;;0.90;;
26864;SDS011;40618;51.166;10.322;2023-03-17T13:21:43;1.73;;;0.82;;
26864;SDS011;40618;51.166;10.322;2023-03-17T13:24:48;2.97;;;0.70;;
26864;SDS011;40618;51.166;10.322;2023-03-17T13:28:14;4.72;;;1.20;;
26864;SDS011;40618;51.166;10.322;2023-03-17T13:33:17;1.85;;;1.02;;
26864;SDS011;40618;51.166;10.322;2023-03-17T13:35:56;0.80;;;0.80;;
26864;SDS011;40618;51.166;10.322;2023-03-17T13:41:31;3.75;;;0.90;;
26864;SDS011;40618;51.166;10.322;2023-03-17T13:44:10;1.45;;;0.90;;
26864;SDS011;40618;51.166;10.322;2023-03-17T13:46:47;4.00;;;1.35;;
26864;SDS011;40618;51.166;10.322;2023-03-17T13:51:42;0.90;;;0.70;;
26864;SDS011;40618;51.166;10.322;2023-03-17T13:54:20;3.35;;;2.38;;
26864;SDS011;40618;51.166;10.322;2023-03-17T14:02:15;1.33;;;1.08;;
26864;SDS011;40618;51.166;10.322;2023-03-17T14:07:21;4.18;;;0.95;;
26864;SDS011;40618;51.166;10.322;2023-03-17T14:09:55;1.88;;;1.10;;
26864;SDS011;40618;51.166;10.322;2023-03-17T14:12:35;1.15;;;1.00;;
26864;SDS011;40618;51.166;10.322;2023-03-17T14:18:03;0.82;;;0.70;;
26864;SDS011;40618;51.166;10.322;2023-03-17T14:20:39;4.13;;;2.10;;
26864;SDS011;40618;51.166;10.322;2023-03-17T14:23:18;6.97;;;2.65;;
26864;SDS011;40618;51.166;10.322;2023-03-17T14:25:44;2.55;;;1.80;;
26864;SDS011;40618;51.166;10.322;2023-03-17T14:28:11;2.75;;;1.58;;
26864;SDS011;40618;51.166;10.322;2023-03-17T14:30:49;1.92;;;1.45;;
26864;SDS011;40618;51.166;10.322;2023-03-17T14:33:39;2.78;;;1.20;;
26864;SDS011;40618;51.166;10.322;2023-03-17T14:36:07;3.25;;;1.50;;
26864;SDS011;40618;51.166;10.322;2023-03-17T14:38:37;3.38;;;1.80;;
26864;SDS011;40618;51.166;10.322;2023-03-17T14:43:38;3.35;;;1.90;;
26864;SDS011;40618;51.166;10.322;2023-03-17T14:46:06;2.47;;;1.45;;
26864;SDS011;40618;51.166;10.322;2023-03-17T14:48:41;2.28;;;1.20;;
26864;SDS011;40618;51.166;10.322;2023-03-17T14:51:16;1.50;;;1.20;;
26864;SDS011;40618;51.166;10.322;2023-03-17T14:53:47;1.35;;;1.08;;
26864;SDS011;40618;51.166;10.322;2023-03-17T14:56:23;1.33;;;0.85;;
26864;SDS011;40618;51.166;10.322;2023-03-17T14:59:04;1.95;;;1.00;;
26864;SDS011;40618;51.166;10.322;2023-03-17T15:01:44;1.90;;;1.02;;
26864;SDS011;40618;51.166;10.322;2023-03-17T15:04:16;1.10;;;0.88;;
26864;SDS011;40618;51.166;10.322;2023-03-17T15:06:49;2.30;;;0.93;;
26864;SDS011;40618;51.166;10.322;2023-03-17T15:09:33;1.48;;;1.05;;
26864;SDS011;40618;51.166;10.322;2023-03-17T15:12:03;5.28;;;1.40;;
26864;SDS011;40618;51.166;10.322;2023-03-17T15:14:49;2.40;;;1.90;;
26864;SDS011;40618;51.166;10.322;2023-03-17T15:17:30;3.17;;;2.00;;
26864;SDS011;40618;51.166;10.322;2023-03-17T15:20:01;3.55;;;1.73;;
26864;SDS011;40618;51.166;10.322;2023-03-17T15:27:56;2.20;;;1.42;;
26864;SDS011;40618;51.166;10.322;2023-03-17T15:30:22;1.50;;;1.17;;
26864;SDS011;40618;51.166;10.322;2023-03-17T15:32:51;2.20;;;1.02;;
26864;SDS011;40618;51.166;10.322;2023-03-17T15:35:25;2.97;;;1.88;;
26864;SDS011;40618;51.166;10.322;2023-03-17T15:37:51;3.20;;;1.90;;
26864;SDS011;40618;51.166;10.322;2023-03-17T15:40:18;10.00;;;2.97;;
26864;SDS011;40618;51.166;10.322;2023-03-17T15:42:44;5.68;;;3.25;;
26864;SDS011;40618;51.166;10.322;2023-03-17T15:45:16;4.97;;;2.33;;
26864;SDS011;40618;51.166;10.322;2023-03-17T15:47:43;2.20;;;1.13;;
26864;SDS011;40618;51.166;10.322;2023-03-17T15:50:27;4.63;;;2.67;;
26864;SDS011;40618;51.166;10.322;2023-03-17T15:52:56;5.38;;;2.47;;
26864;SDS011;40618;51.166;10.322;2023-03-17T15:55:29;6.03;;;3.60;;
26864;SDS011;40618;51.166;10.322;2023-03-17T15:57:58;5.82;;;3.15;;
26864;SDS011;40618;51.166;10.322;2023-03-17T16:00:25;10.57;;;4.28;;
26864;SDS011;40618;51.166;10.322;2023-03-17T16:02:53;6.60;;;4.00;;
26864;SDS011;40618;51.166;10.322;2023-03-17T16:05:23;9.73;;;3.58;;
26864;SDS011;40618;51.166;10.322;2023-03-17T16:07:53;11.88;;;5.57;;
26864;SDS011;40618;51.166;10.322;2023-03-17T16:10:29;6.85;;;4.18;;
26864;SDS011;40618;51.166;10.322;2023-03-17T16:12:56;7.53;;;4.85;;
26864;SDS011;40618;51.166;10.322;2023-03-17T16:15:29;6.72;;;4.22;;
26864;SDS011;40618;51.166;10.322;2023-03-17T16:18:01;8.10;;;4.68;;
26864;SDS011;40618;51.166;10.322;2023-03-17T16:20:36;9.80;;;4.85;;
26864;SDS011;40618;51.166;10.322;2023-03-17T16:25:48;6.53;;;4.10;;
26864;SDS011;40618;51.166;10.322;2023-03-17T16:28:15;6.72;;;4.40;;
26864;SDS011;40618;51.166;10.322;2023-03-17T16:30:44;5.43;;;4.03;;
26864;SDS011;40618;51.166;10.322;2023-03-17T16:33:22;5.63;;;2.97;;
26864;SDS011;40618;51.166;10.322;2023-03-17T16:36:03;4.05;;;3.08;;
26864;SDS011;40618;51.166;10.322;2023-03-17T16:38:30;4.63;;;3.03;;